sensor_id;sensor_type;location;lat;lon;timestamp;P1;durP1;ratioP1;P2;durP2;ratioP2
40122;SDS011;25832;45.490;4.912;2023-12-20T00:02:17;8.60;;;3.22;;
40122;SDS011;25832;45.490;4.912;2023-12-20T00:04:42;3.95;;;3.47;;
40122;SDS011;25832;45.490;4.912;2023-12-20T00:07:08;9.60;;;4.20;;
40122;SDS011;25832;45.490;4.912;2023-12-20T00:09:33;3.70;;;3.40;;
40122;SDS011;25832;45.490;4.912;2023-12-20T00:11:59;5.40;;;3.72;;
40122;SDS011;25832;45.490;4.912;2023-12-20T00:14:25;5.03;;;3.67;;
40122;SDS011;25832;45.490;4.912;2023-12-20T00:16:50;7.18;;;5.38;;
40122;SDS011;25832;45.490;4.912;2023-12-20T00:19:16;4.45;;;3.50;;
40122;SDS011;25832;45.490;4.912;2023-12-20T00:21:42;10.23;;;3.97;;
40122;SDS011;25832;45.490;4.912;2023-12-20T00:24:07;3.53;;;3.30;;
40122;SDS011;25832;45.490;4.912;2023-12-20T00:26:33;2.22;;;2.13;;
40122;SDS011;25832;45.490;4.912;2023-12-20T00:28:59;6.45;;;4.00;;
40122;SDS011;25832;45.490;4.912;2023-12-20T00:31:25;9.27;;;6.32;;
40122;SDS011;25832;45.490;4.912;2023-12-20T00:33:50;5.43;;;5.03;;
40122;SDS011;25832;45.490;4.912;2023-12-20T00:36:16;3.63;;;3.42;;
40122;SDS011;25832;45.490;4.912;2023-12-20T00:38:41;4.10;;;3.80;;
40122;SDS011;25832;45.490;4.912;2023-12-20T00:41:07;7.07;;;5.90;;
40122;SDS011;25832;45.490;4.912;2023-12-20T00:43:33;4.68;;;4.40;;
40122;SDS011;25832;45.490;4.912;2023-12-20T00:45:58;5.15;;;4.53;;
40122;SDS011;25832;45.490;4.912;2023-12-20T00:48:25;14.05;;;7.22;;
40122;SDS011;25832;45.490;4.912;2023-12-20T00:50:52;8.80;;;5.00;;
40122;SDS011;25832;45.490;4.912;2023-12-20T00:53:18;4.25;;;3.95;;
40122;SDS011;25832;45.490;4.912;2023-12-20T00:55:43;9.52;;;4.72;;
40122;SDS011;25832;45.490;4.912;2023-12-20T00:58:09;4.78;;;4.35;;
40122;SDS011;25832;45.490;4.912;2023-12-20T01:00:35;5.97;;;4.80;;
40122;SDS011;25832;45.490;4.912;2023-12-20T01:03:01;4.07;;;2.42;;
40122;SDS011;25832;45.490;4.912;2023-12-20T01:05:26;8.05;;;4.00;;
40122;SDS011;25832;45.490;4.912;2023-12-20T01:07:52;11.68;;;5.15;;
40122;SDS011;25832;45.490;4.912;2023-12-20T01:10:18;3.50;;;3.08;;
40122;SDS011;25832;45.490;4.912;2023-12-20T01:12:43;5.25;;;2.90;;
40122;SDS011;25832;45.490;4.912;2023-12-20T01:15:09;12.50;;;6.05;;
40122;SDS011;25832;45.490;4.912;2023-12-20T01:17:35;8.35;;;7.35;;
40122;SDS011;25832;45.490;4.912;2023-12-20T01:20:01;3.70;;;2.92;;
40122;SDS011;25832;45.490;4.912;2023-12-20T01:22:27;8.32;;;3.40;;
40122;SDS011;25832;45.490;4.912;2023-12-20T01:24:52;2.63;;;1.67;;
40122;SDS011;25832;45.490;4.912;2023-12-20T01:27:18;3.08;;;2.78;;
40122;SDS011;25832;45.490;4.912;2023-12-20T01:29:44;13.40;;;4.10;;
40122;SDS011;25832;45.490;4.912;2023-12-20T01:32:10;5.45;;;4.25;;
40122;SDS011;25832;45.490;4.912;2023-12-20T01:34:35;7.13;;;4.45;;
40122;SDS011;25832;45.490;4.912;2023-12-20T01:37:01;3.60;;;3.22;;
40122;SDS011;25832;45.490;4.912;2023-12-20T01:39:27;1.40;;;1.33;;
40122;SDS011;25832;45.490;4.912;2023-12-20T01:41:53;8.32;;;4.50;;
40122;SDS011;25832;45.490;4.912;2023-12-20T01:44:18;7.25;;;5.68;;
40122;SDS011;25832;45.490;4.912;2023-12-20T01:46:45;1.88;;;1.77;;
40122;SDS011;25832;45.490;4.912;2023-12-20T01:49:11;2.92;;;2.72;;
40122;SDS011;25832;45.490;4.912;2023-12-20T01:51:37;9.10;;;6.85;;
40122;SDS011;25832;45.490;4.912;2023-12-20T01:54:04;11.13;;;6.00;;
40122;SDS011;25832;45.490;4.912;2023-12-20T01:56:30;7.82;;;6.75;;
40122;SDS011;25832;45.490;4.912;2023-12-20T01:58:57;6.95;;;6.35;;
40122;SDS011;25832;45.490;4.912;2023-12-20T02:01:24;5.03;;;4.32;;
40122;SDS011;25832;45.490;4.912;2023-12-20T02:03:49;10.38;;;4.05;;
40122;SDS011;25832;45.490;4.912;2023-12-20T02:06:16;7.00;;;3.55;;
40122;SDS011;25832;45.490;4.912;2023-12-20T02:08:45;5.03;;;4.55;;
40122;SDS011;25832;45.490;4.912;2023-12-20T02:11:10;4.20;;;3.80;;
40122;SDS011;25832;45.490;4.912;2023-12-20T02:13:36;1.95;;;1.85;;
40122;SDS011;25832;45.490;4.912;2023-12-20T02:16:02;4.30;;;4.00;;
40122;SDS011;25832;45.490;4.912;2023-12-20T02:18:28;4.57;;;3.03;;
40122;SDS011;25832;45.490;4.912;2023-12-20T02:20:53;2.85;;;2.70;;
40122;SDS011;25832;45.490;4.912;2023-12-20T02:23:20;6.03;;;5.45;;
40122;SDS011;25832;45.490;4.912;2023-12-20T02:25:45;4.95;;;4.65;;
40122;SDS011;25832;45.490;4.912;2023-12-20T02:28:11;5.63;;;4.32;;
40122;SDS011;25832;45.490;4.912;2023-12-20T02:30:37;6.85;;;3.22;;
40122;SDS011;25832;45.490;4.912;2023-12-20T02:33:03;2.55;;;1.65;;
40122;SDS011;25832;45.490;4.912;2023-12-20T02:35:32;4.72;;;3.33;;
40122;SDS011;25832;45.490;4.912;2023-12-20T02:37:58;1.77;;;1.67;;
40122;SDS011;25832;45.490;4.912;2023-12-20T02:40:23;10.90;;;3.70;;
40122;SDS011;25832;45.490;4.912;2023-12-20T02:42:49;7.15;;;3.17;;
40122;SDS011;25832;45.490;4.912;2023-12-20T02:45:15;7.43;;;4.25;;
40122;SDS011;25832;45.490;4.912;2023-12-20T02:47:40;4.28;;;2.67;;
40122;SDS011;25832;45.490;4.912;2023-12-20T02:50:06;3.53;;;2.30;;
40122;SDS011;25832;45.490;4.912;2023-12-20T02:52:32;9.75;;;3.97;;
40122;SDS011;25832;45.490;4.912;2023-12-20T02:54:57;2.67;;;2.13;;
40122;SDS011;25832;45.490;4.912;2023-12-20T02:57:23;3.97;;;3.67;;
40122;SDS011;25832;45.490;4.912;2023-12-20T02:59:48;2.03;;;1.90;;
40122;SDS011;25832;45.490;4.912;2023-12-20T03:02:14;6.50;;;2.35;;
40122;SDS011;25832;45.490;4.912;2023-12-20T03:04:40;8.85;;;4.43;;
40122;SDS011;25832;45.490;4.912;2023-12-20T03:07:05;2.40;;;2.03;;
40122;SDS011;25832;45.490;4.912;2023-12-20T03:09:31;12.23;;;4.70;;
40122;SDS011;25832;45.490;4.912;2023-12-20T03:11:57;7.45;;;4.57;;
40122;SDS011;25832;45.490;4.912;2023-12-20T03:14:22;3.60;;;2.35;;
40122;SDS011;25832;45.490;4.912;2023-12-20T03:16:51;5.07;;;4.32;;
40122;SDS011;25832;45.490;4.912;2023-12-20T03:19:17;8.20;;;4.95;;
40122;SDS011;25832;45.490;4.912;2023-12-20T03:21:44;1.40;;;1.33;;
40122;SDS011;25832;45.490;4.912;2023-12-20T03:24:10;5.55;;;4.22;;
40122;SDS011;25832;45.490;4.912;2023-12-20T03:26:35;4.47;;;4.15;;
40122;SDS011;25832;45.490;4.912;2023-12-20T03:29:01;8.57;;;4.28;;
40122;SDS011;25832;45.490;4.912;2023-12-20T03:31:26;6.35;;;4.15;;
40122;SDS011;25832;45.490;4.912;2023-12-20T03:33:52;7.95;;;2.97;;
40122;SDS011;25832;45.490;4.912;2023-12-20T03:36:18;4.13;;;3.88;;
40122;SDS011;25832;45.490;4.912;2023-12-20T03:38:44;3.60;;;3.25;;
40122;SDS011;25832;45.490;4.912;2023-12-20T03:41:10;9.55;;;3.33;;
40122;SDS011;25832;45.490;4.912;2023-12-20T03:43:36;1.65;;;1.55;;
40122;SDS011;25832;45.490;4.912;2023-12-20T03:46:02;5.90;;;1.83;;
40122;SDS011;25832;45.490;4.912;2023-12-20T03:48:29;5.80;;;4.25;;
40122;SDS011;25832;45.490;4.912;2023-12-20T03:50:56;3.75;;;2.42;;
40122;SDS011;25832;45.490;4.912;2023-12-20T03:53:22;7.95;;;3.72;;
40122;SDS011;25832;45.490;4.912;2023-12-20T03:55:48;5.63;;;3.40;;
40122;SDS011;25832;45.490;4.912;2023-12-20T03:58:13;2.05;;;1.85;;
40122;SDS011;25832;45.490;4.912;2023-12-20T04:00:39;8.65;;;3.97;;
40122;SDS011;25832;45.490;4.912;2023-12-20T04:03:04;3.65;;;3.35;;
40122;SDS011;25832;45.490;4.912;2023-12-20T04:05:30;0.88;;;0.88;;
40122;SDS011;25832;45.490;4.912;2023-12-20T04:07:56;2.28;;;2.13;;
40122;SDS011;25832;45.490;4.912;2023-12-20T04:10:21;10.02;;;2.65;;
40122;SDS011;25832;45.490;4.912;2023-12-20T04:12:47;3.53;;;2.63;;
40122;SDS011;25832;45.490;4.912;2023-12-20T04:15:12;1.92;;;1.83;;
40122;SDS011;25832;45.490;4.912;2023-12-20T04:17:38;2.60;;;2.40;;
40122;SDS011;25832;45.490;4.912;2023-12-20T04:20:04;2.90;;;2.70;;
40122;SDS011;25832;45.490;4.912;2023-12-20T04:22:30;2.63;;;2.53;;
40122;SDS011;25832;45.490;4.912;2023-12-20T04:24:56;3.30;;;2.85;;
40122;SDS011;25832;45.490;4.912;2023-12-20T04:27:21;1.98;;;1.00;;
40122;SDS011;25832;45.490;4.912;2023-12-20T04:29:47;1.85;;;1.75;;
40122;SDS011;25832;45.490;4.912;2023-12-20T04:32:13;1.40;;;1.20;;
40122;SDS011;25832;45.490;4.912;2023-12-20T04:34:38;9.02;;;3.33;;
40122;SDS011;25832;45.490;4.912;2023-12-20T04:37:04;4.10;;;3.28;;
40122;SDS011;25832;45.490;4.912;2023-12-20T04:39:29;5.82;;;2.65;;
40122;SDS011;25832;45.490;4.912;2023-12-20T04:41:55;5.65;;;2.42;;
40122;SDS011;25832;45.490;4.912;2023-12-20T04:44:21;6.65;;;3.15;;
40122;SDS011;25832;45.490;4.912;2023-12-20T04:46:46;5.00;;;2.33;;
40122;SDS011;25832;45.490;4.912;2023-12-20T04:49:12;1.98;;;1.80;;
40122;SDS011;25832;45.490;4.912;2023-12-20T04:51:38;1.88;;;1.77;;
40122;SDS011;25832;45.490;4.912;2023-12-20T04:54:03;1.80;;;1.67;;
40122;SDS011;25832;45.490;4.912;2023-12-20T04:56:29;2.28;;;2.08;;
40122;SDS011;25832;45.490;4.912;2023-12-20T04:58:54;2.60;;;2.45;;
40122;SDS011;25832;45.490;4.912;2023-12-20T05:01:20;4.85;;;2.67;;
40122;SDS011;25832;45.490;4.912;2023-12-20T05:03:46;3.40;;;1.30;;
40122;SDS011;25832;45.490;4.912;2023-12-20T05:06:12;5.53;;;3.83;;
40122;SDS011;25832;45.490;4.912;2023-12-20T05:08:38;4.60;;;3.08;;
40122;SDS011;25832;45.490;4.912;2023-12-20T05:11:03;6.80;;;3.42;;
40122;SDS011;25832;45.490;4.912;2023-12-20T05:13:29;1.92;;;1.52;;
40122;SDS011;25832;45.490;4.912;2023-12-20T05:15:55;12.60;;;4.05;;
40122;SDS011;25832;45.490;4.912;2023-12-20T05:18:21;5.13;;;3.47;;
40122;SDS011;25832;45.490;4.912;2023-12-20T05:20:47;2.22;;;1.90;;
40122;SDS011;25832;45.490;4.912;2023-12-20T05:23:12;19.83;;;4.43;;
40122;SDS011;25832;45.490;4.912;2023-12-20T05:25:39;9.32;;;4.68;;
40122;SDS011;25832;45.490;4.912;2023-12-20T05:28:04;1.73;;;1.67;;
40122;SDS011;25832;45.490;4.912;2023-12-20T05:30:30;4.85;;;3.90;;
40122;SDS011;25832;45.490;4.912;2023-12-20T05:32:56;2.80;;;2.60;;
40122;SDS011;25832;45.490;4.912;2023-12-20T05:35:21;4.55;;;3.92;;
40122;SDS011;25832;45.490;4.912;2023-12-20T05:37:48;3.50;;;3.25;;
40122;SDS011;25832;45.490;4.912;2023-12-20T05:40:14;8.05;;;2.80;;
40122;SDS011;25832;45.490;4.912;2023-12-20T05:42:40;4.97;;;3.60;;
40122;SDS011;25832;45.490;4.912;2023-12-20T05:45:06;5.47;;;3.17;;
40122;SDS011;25832;45.490;4.912;2023-12-20T05:47:32;6.03;;;3.10;;
40122;SDS011;25832;45.490;4.912;2023-12-20T05:49:57;5.15;;;3.78;;
40122;SDS011;25832;45.490;4.912;2023-12-20T05:52:23;4.78;;;4.03;;
40122;SDS011;25832;45.490;4.912;2023-12-20T05:54:49;2.50;;;2.30;;
40122;SDS011;25832;45.490;4.912;2023-12-20T05:57:15;2.35;;;2.22;;
40122;SDS011;25832;45.490;4.912;2023-12-20T05:59:40;3.38;;;3.17;;
40122;SDS011;25832;45.490;4.912;2023-12-20T06:02:06;4.15;;;2.88;;
40122;SDS011;25832;45.490;4.912;2023-12-20T06:04:32;3.50;;;3.15;;
40122;SDS011;25832;45.490;4.912;2023-12-20T06:06:57;3.30;;;3.00;;
40122;SDS011;25832;45.490;4.912;2023-12-20T06:09:24;10.48;;;3.47;;
40122;SDS011;25832;45.490;4.912;2023-12-20T06:11:51;1.38;;;1.30;;
40122;SDS011;25832;45.490;4.912;2023-12-20T06:14:17;8.48;;;4.25;;
40122;SDS011;25832;45.490;4.912;2023-12-20T06:16:42;1.10;;;1.02;;
40122;SDS011;25832;45.490;4.912;2023-12-20T06:19:08;3.58;;;2.28;;
40122;SDS011;25832;45.490;4.912;2023-12-20T06:21:34;10.50;;;2.95;;
40122;SDS011;25832;45.490;4.912;2023-12-20T06:23:59;10.20;;;5.13;;
40122;SDS011;25832;45.490;4.912;2023-12-20T06:26:25;6.18;;;5.38;;
40122;SDS011;25832;45.490;4.912;2023-12-20T06:28:51;4.05;;;2.88;;
40122;SDS011;25832;45.490;4.912;2023-12-20T06:31:16;10.40;;;2.85;;
40122;SDS011;25832;45.490;4.912;2023-12-20T06:33:42;19.63;;;2.15;;
40122;SDS011;25832;45.490;4.912;2023-12-20T06:36:12;7.60;;;4.15;;
40122;SDS011;25832;45.490;4.912;2023-12-20T06:38:41;3.40;;;2.08;;
40122;SDS011;25832;45.490;4.912;2023-12-20T06:41:07;3.97;;;3.58;;
40122;SDS011;25832;45.490;4.912;2023-12-20T06:43:33;7.53;;;4.40;;
40122;SDS011;25832;45.490;4.912;2023-12-20T06:46:00;4.70;;;3.13;;
40122;SDS011;25832;45.490;4.912;2023-12-20T06:48:25;4.05;;;3.67;;
40122;SDS011;25832;45.490;4.912;2023-12-20T06:50:51;6.22;;;5.53;;
40122;SDS011;25832;45.490;4.912;2023-12-20T06:53:17;3.08;;;2.80;;
40122;SDS011;25832;45.490;4.912;2023-12-20T06:55:43;2.42;;;2.30;;
40122;SDS011;25832;45.490;4.912;2023-12-20T06:58:08;2.85;;;2.55;;
40122;SDS011;25832;45.490;4.912;2023-12-20T07:00:34;4.95;;;2.85;;
40122;SDS011;25832;45.490;4.912;2023-12-20T07:03:00;3.67;;;3.42;;
40122;SDS011;25832;45.490;4.912;2023-12-20T07:05:26;4.15;;;3.13;;
40122;SDS011;25832;45.490;4.912;2023-12-20T07:07:52;3.55;;;3.25;;
40122;SDS011;25832;45.490;4.912;2023-12-20T07:10:17;5.78;;;3.80;;
40122;SDS011;25832;45.490;4.912;2023-12-20T07:12:43;3.85;;;3.55;;
40122;SDS011;25832;45.490;4.912;2023-12-20T07:15:09;3.88;;;3.53;;
40122;SDS011;25832;45.490;4.912;2023-12-20T07:17:35;5.15;;;3.83;;
40122;SDS011;25832;45.490;4.912;2023-12-20T07:20:00;3.70;;;3.42;;
40122;SDS011;25832;45.490;4.912;2023-12-20T07:22:29;10.05;;;3.72;;
40122;SDS011;25832;45.490;4.912;2023-12-20T07:24:56;2.45;;;1.98;;
40122;SDS011;25832;45.490;4.912;2023-12-20T07:27:23;3.53;;;1.92;;
40122;SDS011;25832;45.490;4.912;2023-12-20T07:29:48;7.85;;;5.18;;
40122;SDS011;25832;45.490;4.912;2023-12-20T07:32:14;3.97;;;2.90;;
40122;SDS011;25832;45.490;4.912;2023-12-20T07:34:39;8.57;;;4.15;;
40122;SDS011;25832;45.490;4.912;2023-12-20T07:37:05;2.35;;;2.25;;
40122;SDS011;25832;45.490;4.912;2023-12-20T07:39:31;4.95;;;3.75;;
40122;SDS011;25832;45.490;4.912;2023-12-20T07:41:56;3.60;;;3.30;;
40122;SDS011;25832;45.490;4.912;2023-12-20T07:44:22;9.18;;;4.97;;
40122;SDS011;25832;45.490;4.912;2023-12-20T07:46:47;1.70;;;1.42;;
40122;SDS011;25832;45.490;4.912;2023-12-20T07:49:13;7.78;;;4.93;;
40122;SDS011;25832;45.490;4.912;2023-12-20T07:51:39;4.80;;;4.40;;
40122;SDS011;25832;45.490;4.912;2023-12-20T07:54:04;3.67;;;3.35;;
40122;SDS011;25832;45.490;4.912;2023-12-20T07:56:30;3.53;;;3.30;;
40122;SDS011;25832;45.490;4.912;2023-12-20T07:58:56;2.80;;;2.60;;
40122;SDS011;25832;45.490;4.912;2023-12-20T08:01:22;4.07;;;3.65;;
40122;SDS011;25832;45.490;4.912;2023-12-20T08:03:48;6.30;;;4.03;;
40122;SDS011;25832;45.490;4.912;2023-12-20T08:06:14;4.78;;;3.83;;
40122;SDS011;25832;45.490;4.912;2023-12-20T08:08:40;3.65;;;3.33;;
40122;SDS011;25832;45.490;4.912;2023-12-20T08:11:05;7.57;;;3.78;;
40122;SDS011;25832;45.490;4.912;2023-12-20T08:13:31;3.65;;;2.85;;
40122;SDS011;25832;45.490;4.912;2023-12-20T08:15:56;8.02;;;4.25;;
40122;SDS011;25832;45.490;4.912;2023-12-20T08:18:22;3.88;;;3.55;;
40122;SDS011;25832;45.490;4.912;2023-12-20T08:20:48;8.07;;;5.00;;
40122;SDS011;25832;45.490;4.912;2023-12-20T08:23:14;5.43;;;4.60;;
40122;SDS011;25832;45.490;4.912;2023-12-20T08:25:40;2.28;;;2.17;;
40122;SDS011;25832;45.490;4.912;2023-12-20T08:28:06;5.82;;;3.88;;
40122;SDS011;25832;45.490;4.912;2023-12-20T08:30:31;4.40;;;3.08;;
40122;SDS011;25832;45.490;4.912;2023-12-20T08:32:59;5.90;;;5.05;;
40122;SDS011;25832;45.490;4.912;2023-12-20T08:35:25;8.20;;;6.22;;
40122;SDS011;25832;45.490;4.912;2023-12-20T08:37:51;4.30;;;4.00;;
40122;SDS011;25832;45.490;4.912;2023-12-20T08:40:16;6.88;;;5.22;;
40122;SDS011;25832;45.490;4.912;2023-12-20T08:42:42;10.80;;;4.75;;
40122;SDS011;25832;45.490;4.912;2023-12-20T08:45:08;7.50;;;5.10;;
40122;SDS011;25832;45.490;4.912;2023-12-20T08:47:33;4.43;;;4.13;;
40122;SDS011;25832;45.490;4.912;2023-12-20T08:49:59;6.53;;;4.65;;
40122;SDS011;25832;45.490;4.912;2023-12-20T08:52:26;4.40;;;3.83;;
40122;SDS011;25832;45.490;4.912;2023-12-20T08:54:52;5.00;;;4.65;;
40122;SDS011;25832;45.490;4.912;2023-12-20T08:57:22;6.90;;;4.43;;
40122;SDS011;25832;45.490;4.912;2023-12-20T08:59:49;4.28;;;3.88;;
40122;SDS011;25832;45.490;4.912;2023-12-20T09:02:16;8.15;;;6.90;;
40122;SDS011;25832;45.490;4.912;2023-12-20T09:04:42;9.18;;;4.50;;
40122;SDS011;25832;45.490;4.912;2023-12-20T09:07:20;6.22;;;5.68;;
40122;SDS011;25832;45.490;4.912;2023-12-20T09:09:50;4.50;;;4.15;;
40122;SDS011;25832;45.490;4.912;2023-12-20T09:12:19;6.47;;;5.75;;
40122;SDS011;25832;45.490;4.912;2023-12-20T09:14:46;3.30;;;3.10;;
40122;SDS011;25832;45.490;4.912;2023-12-20T09:17:12;12.85;;;7.43;;
40122;SDS011;25832;45.490;4.912;2023-12-20T09:19:38;6.40;;;3.90;;
40122;SDS011;25832;45.490;4.912;2023-12-20T09:22:04;5.65;;;5.13;;
40122;SDS011;25832;45.490;4.912;2023-12-20T09:24:30;6.93;;;6.05;;
40122;SDS011;25832;45.490;4.912;2023-12-20T09:26:56;5.68;;;4.28;;
40122;SDS011;25832;45.490;4.912;2023-12-20T09:29:21;6.82;;;5.40;;
40122;SDS011;25832;45.490;4.912;2023-12-20T09:31:47;8.15;;;4.53;;
40122;SDS011;25832;45.490;4.912;2023-12-20T09:34:14;2.33;;;2.22;;
40122;SDS011;25832;45.490;4.912;2023-12-20T09:36:41;5.47;;;4.55;;
40122;SDS011;25832;45.490;4.912;2023-12-20T09:39:15;7.53;;;5.43;;
40122;SDS011;25832;45.490;4.912;2023-12-20T09:41:45;5.32;;;4.43;;
40122;SDS011;25832;45.490;4.912;2023-12-20T09:44:28;4.68;;;3.00;;
40122;SDS011;25832;45.490;4.912;2023-12-20T09:46:54;13.13;;;6.28;;
40122;SDS011;25832;45.490;4.912;2023-12-20T09:49:21;5.63;;;5.13;;
40122;SDS011;25832;45.490;4.912;2023-12-20T09:51:48;7.82;;;3.58;;
40122;SDS011;25832;45.490;4.912;2023-12-20T09:54:19;11.70;;;4.38;;
40122;SDS011;25832;45.490;4.912;2023-12-20T09:56:46;2.58;;;2.28;;
40122;SDS011;25832;45.490;4.912;2023-12-20T09:59:13;6.40;;;4.35;;
40122;SDS011;25832;45.490;4.912;2023-12-20T10:01:42;5.38;;;4.35;;
40122;SDS011;25832;45.490;4.912;2023-12-20T10:04:08;3.50;;;3.30;;
40122;SDS011;25832;45.490;4.912;2023-12-20T10:06:46;2.53;;;2.35;;
40122;SDS011;25832;45.490;4.912;2023-12-20T10:09:12;5.38;;;2.58;;
40122;SDS011;25832;45.490;4.912;2023-12-20T10:11:38;3.42;;;2.92;;
40122;SDS011;25832;45.490;4.912;2023-12-20T10:14:05;5.07;;;3.95;;
40122;SDS011;25832;45.490;4.912;2023-12-20T10:16:32;5.18;;;4.18;;
40122;SDS011;25832;45.490;4.912;2023-12-20T10:18:58;2.78;;;2.58;;
40122;SDS011;25832;45.490;4.912;2023-12-20T10:21:25;5.35;;;4.85;;
40122;SDS011;25832;45.490;4.912;2023-12-20T10:23:55;3.78;;;3.47;;
40122;SDS011;25832;45.490;4.912;2023-12-20T10:26:25;6.93;;;5.63;;
40122;SDS011;25832;45.490;4.912;2023-12-20T10:31:30;6.20;;;3.78;;
40122;SDS011;25832;45.490;4.912;2023-12-20T10:33:58;3.05;;;2.75;;
40122;SDS011;25832;45.490;4.912;2023-12-20T10:36:25;4.38;;;3.80;;
40122;SDS011;25832;45.490;4.912;2023-12-20T10:38:52;8.95;;;6.30;;
40122;SDS011;25832;45.490;4.912;2023-12-20T10:41:24;6.57;;;4.68;;
40122;SDS011;25832;45.490;4.912;2023-12-20T10:43:55;10.02;;;5.50;;
40122;SDS011;25832;45.490;4.912;2023-12-20T10:46:28;8.38;;;4.43;;
40122;SDS011;25832;45.490;4.912;2023-12-20T10:48:55;7.95;;;3.17;;
40122;SDS011;25832;45.490;4.912;2023-12-20T10:51:22;6.07;;;3.22;;
40122;SDS011;25832;45.490;4.912;2023-12-20T10:53:49;13.48;;;8.00;;
40122;SDS011;25832;45.490;4.912;2023-12-20T10:56:18;5.03;;;4.07;;
40122;SDS011;25832;45.490;4.912;2023-12-20T10:58:45;4.50;;;2.92;;
40122;SDS011;25832;45.490;4.912;2023-12-20T11:01:13;3.75;;;3.35;;
40122;SDS011;25832;45.490;4.912;2023-12-20T11:03:41;6.00;;;4.05;;
40122;SDS011;25832;45.490;4.912;2023-12-20T11:08:49;3.67;;;2.78;;
40122;SDS011;25832;45.490;4.912;2023-12-20T11:11:26;5.45;;;2.75;;
40122;SDS011;25832;45.490;4.912;2023-12-20T11:14:03;3.53;;;3.15;;
40122;SDS011;25832;45.490;4.912;2023-12-20T11:16:31;6.40;;;3.20;;
40122;SDS011;25832;45.490;4.912;2023-12-20T11:18:57;3.25;;;2.92;;
40122;SDS011;25832;45.490;4.912;2023-12-20T11:21:29;2.67;;;2.35;;
40122;SDS011;25832;45.490;4.912;2023-12-20T11:23:55;4.22;;;3.85;;
40122;SDS011;25832;45.490;4.912;2023-12-20T11:26:27;4.00;;;2.65;;
40122;SDS011;25832;45.490;4.912;2023-12-20T11:28:54;7.40;;;3.25;;
40122;SDS011;25832;45.490;4.912;2023-12-20T11:31:40;4.05;;;3.30;;
40122;SDS011;25832;45.490;4.912;2023-12-20T11:34:15;2.08;;;1.48;;
40122;SDS011;25832;45.490;4.912;2023-12-20T11:36:42;3.42;;;2.70;;
40122;SDS011;25832;45.490;4.912;2023-12-20T11:39:08;1.60;;;1.27;;
40122;SDS011;25832;45.490;4.912;2023-12-20T11:41:35;3.63;;;2.58;;
40122;SDS011;25832;45.490;4.912;2023-12-20T11:44:01;3.92;;;2.78;;
40122;SDS011;25832;45.490;4.912;2023-12-20T11:46:29;1.13;;;0.95;;
40122;SDS011;25832;45.490;4.912;2023-12-20T11:48:56;0.65;;;0.65;;
40122;SDS011;25832;45.490;4.912;2023-12-20T11:51:22;0.95;;;0.80;;
40122;SDS011;25832;45.490;4.912;2023-12-20T11:53:51;3.17;;;1.45;;
40122;SDS011;25832;45.490;4.912;2023-12-20T11:56:18;4.85;;;2.25;;
40122;SDS011;25832;45.490;4.912;2023-12-20T11:58:43;1.27;;;0.95;;
40122;SDS011;25832;45.490;4.912;2023-12-20T12:01:09;5.32;;;0.85;;
40122;SDS011;25832;45.490;4.912;2023-12-20T12:03:35;0.82;;;0.82;;
40122;SDS011;25832;45.490;4.912;2023-12-20T12:06:02;3.63;;;0.95;;
40122;SDS011;25832;45.490;4.912;2023-12-20T12:08:29;0.70;;;0.70;;
40122;SDS011;25832;45.490;4.912;2023-12-20T12:10:55;1.58;;;1.48;;
40122;SDS011;25832;45.490;4.912;2023-12-20T12:13:21;0.32;;;0.32;;
40122;SDS011;25832;45.490;4.912;2023-12-20T12:15:47;1.52;;;1.42;;
40122;SDS011;25832;45.490;4.912;2023-12-20T12:18:15;2.90;;;2.63;;
40122;SDS011;25832;45.490;4.912;2023-12-20T12:20:41;2.47;;;1.30;;
40122;SDS011;25832;45.490;4.912;2023-12-20T12:23:07;1.45;;;1.35;;
40122;SDS011;25832;45.490;4.912;2023-12-20T12:25:36;1.33;;;1.33;;
40122;SDS011;25832;45.490;4.912;2023-12-20T12:28:02;2.03;;;1.60;;
40122;SDS011;25832;45.490;4.912;2023-12-20T12:30:28;8.82;;;2.63;;
40122;SDS011;25832;45.490;4.912;2023-12-20T12:32:55;1.45;;;1.35;;
40122;SDS011;25832;45.490;4.912;2023-12-20T12:35:21;2.83;;;1.30;;
40122;SDS011;25832;45.490;4.912;2023-12-20T12:37:47;1.52;;;1.42;;
40122;SDS011;25832;45.490;4.912;2023-12-20T12:40:13;1.75;;;1.45;;
40122;SDS011;25832;45.490;4.912;2023-12-20T12:42:40;1.85;;;1.23;;
40122;SDS011;25832;45.490;4.912;2023-12-20T12:45:07;4.68;;;2.20;;
40122;SDS011;25832;45.490;4.912;2023-12-20T12:47:33;1.23;;;1.15;;
40122;SDS011;25832;45.490;4.912;2023-12-20T12:49:59;5.85;;;1.60;;
40122;SDS011;25832;45.490;4.912;2023-12-20T12:52:25;0.40;;;0.40;;
40122;SDS011;25832;45.490;4.912;2023-12-20T12:54:52;4.57;;;1.48;;
40122;SDS011;25832;45.490;4.912;2023-12-20T12:57:18;2.80;;;1.45;;
40122;SDS011;25832;45.490;4.912;2023-12-20T12:59:44;0.68;;;0.50;;
40122;SDS011;25832;45.490;4.912;2023-12-20T13:02:11;0.57;;;0.57;;
40122;SDS011;25832;45.490;4.912;2023-12-20T13:04:38;4.38;;;1.75;;
40122;SDS011;25832;45.490;4.912;2023-12-20T13:07:04;0.40;;;0.40;;
40122;SDS011;25832;45.490;4.912;2023-12-20T13:09:30;3.20;;;0.30;;
40122;SDS011;25832;45.490;4.912;2023-12-20T13:11:56;1.58;;;0.65;;
40122;SDS011;25832;45.490;4.912;2023-12-20T13:14:22;0.55;;;0.40;;
40122;SDS011;25832;45.490;4.912;2023-12-20T13:16:47;0.32;;;0.32;;
40122;SDS011;25832;45.490;4.912;2023-12-20T13:19:13;0.10;;;0.10;;
40122;SDS011;25832;45.490;4.912;2023-12-20T13:21:39;0.80;;;0.80;;
40122;SDS011;25832;45.490;4.912;2023-12-20T13:24:05;5.72;;;0.93;;
40122;SDS011;25832;45.490;4.912;2023-12-20T13:26:30;0.75;;;0.75;;
40122;SDS011;25832;45.490;4.912;2023-12-20T13:28:56;1.38;;;0.93;;
40122;SDS011;25832;45.490;4.912;2023-12-20T13:31:22;2.67;;;1.38;;
40122;SDS011;25832;45.490;4.912;2023-12-20T13:33:47;3.42;;;2.40;;
40122;SDS011;25832;45.490;4.912;2023-12-20T13:36:13;0.98;;;0.95;;
40122;SDS011;25832;45.490;4.912;2023-12-20T13:38:39;0.65;;;0.57;;
40122;SDS011;25832;45.490;4.912;2023-12-20T13:41:05;0.20;;;0.20;;
40122;SDS011;25832;45.490;4.912;2023-12-20T13:43:31;1.23;;;1.08;;
40122;SDS011;25832;45.490;4.912;2023-12-20T13:45:57;0.82;;;0.82;;
40122;SDS011;25832;45.490;4.912;2023-12-20T13:48:26;0.52;;;0.30;;
40122;SDS011;25832;45.490;4.912;2023-12-20T13:50:52;0.80;;;0.77;;
40122;SDS011;25832;45.490;4.912;2023-12-20T13:53:17;0.30;;;0.20;;
40122;SDS011;25832;45.490;4.912;2023-12-20T13:55:44;1.83;;;0.82;;
40122;SDS011;25832;45.490;4.912;2023-12-20T13:58:09;0.52;;;0.50;;
40122;SDS011;25832;45.490;4.912;2023-12-20T14:00:35;0.85;;;0.35;;
40122;SDS011;25832;45.490;4.912;2023-12-20T14:03:02;0.10;;;0.10;;
40122;SDS011;25832;45.490;4.912;2023-12-20T14:05:28;0.20;;;0.20;;
40122;SDS011;25832;45.490;4.912;2023-12-20T14:07:54;0.00;;;0.00;;
40122;SDS011;25832;45.490;4.912;2023-12-20T14:10:22;0.20;;;0.20;;
40122;SDS011;25832;45.490;4.912;2023-12-20T14:12:51;3.63;;;1.20;;
40122;SDS011;25832;45.490;4.912;2023-12-20T14:15:17;0.20;;;0.20;;
40122;SDS011;25832;45.490;4.912;2023-12-20T14:17:43;7.97;;;1.48;;
40122;SDS011;25832;45.490;4.912;2023-12-20T14:20:08;0.10;;;0.10;;
40122;SDS011;25832;45.490;4.912;2023-12-20T14:22:36;2.85;;;1.10;;
40122;SDS011;25832;45.490;4.912;2023-12-20T14:25:03;0.45;;;0.28;;
40122;SDS011;25832;45.490;4.912;2023-12-20T14:27:29;0.98;;;0.57;;
40122;SDS011;25832;45.490;4.912;2023-12-20T14:29:55;0.22;;;0.22;;
40122;SDS011;25832;45.490;4.912;2023-12-20T14:32:21;0.10;;;0.10;;
40122;SDS011;25832;45.490;4.912;2023-12-20T14:34:47;0.00;;;0.00;;
40122;SDS011;25832;45.490;4.912;2023-12-20T14:37:12;0.20;;;0.20;;
40122;SDS011;25832;45.490;4.912;2023-12-20T14:39:39;0.10;;;0.10;;
40122;SDS011;25832;45.490;4.912;2023-12-20T14:42:07;0.55;;;0.40;;
40122;SDS011;25832;45.490;4.912;2023-12-20T14:44:37;0.00;;;0.00;;
40122;SDS011;25832;45.490;4.912;2023-12-20T14:47:02;0.17;;;0.17;;
40122;SDS011;25832;45.490;4.912;2023-12-20T14:49:29;1.05;;;0.88;;